This is the latest recevied weather packets stored in our database for station/object OK1JRA-6. If no packets are shown the sender has not sent any weather packets the latest 1 day(s).
| Time | Temp. | Humidity | Pressure | Rain* | Wind** | Luminosity | Snow |
|---|---|---|---|---|---|---|---|
| 1778013801 | 14.44° C | 78% | 1007.5 hPa | 0 mm | 1.79 m/s, 314° | - | - |
| 1778013188 | 14.44° C | 76% | 1007.5 hPa | 0 mm | 1.79 m/s, 309° | - | - |
| 1778012882 | 14.44° C | 76% | 1007.5 hPa | 0 mm | 1.34 m/s, 313° | - | - |
| 1778012270 | 14.44° C | 75% | 1007.6 hPa | 0 mm | 1.34 m/s, 318° | - | - |
| 1778011963 | 14.44° C | 75% | 1007.5 hPa | 0 mm | 1.79 m/s, 325° | - | - |
| 1778011657 | 14.44° C | 74% | 1007.6 hPa | 0.25 mm | 1.34 m/s, 313° | - | - |
| 1778011045 | 15° C | 75% | 1007.4 hPa | 0.51 mm | 1.79 m/s, 30° | - | - |
| 1778010433 | 15° C | 75% | 1006.9 hPa | 2.03 mm | 2.24 m/s, 47° | - | - |
| 1778009820 | 15° C | 74% | 1006.8 hPa | 2.03 mm | 0.89 m/s, 33° | - | - |
| 1778009208 | 15° C | 73% | 1006.5 hPa | 2.03 mm | 0.45 m/s, 75° | - | - |
| 1778008596 | 15.56° C | 73% | 1006 hPa | 2.03 mm | 3.13 m/s, 45° | - | - |
| 1778008289 | 15.56° C | 73% | 1005.9 hPa | 2.03 mm | 3.13 m/s, 26° | - | - |
| 1778007979 | 15.56° C | 72% | 1006 hPa | 1.78 mm | 2.68 m/s, 15° | - | - |
| 1778007351 | 16.11° C | 71% | 1005.8 hPa | 1.52 mm | 2.68 m/s, 345° | - | - |
| 1778007007 | 16.67° C | 71% | 1006.4 hPa | 0.25 mm | 1.79 m/s, 321° | - | - |
| 1778007007 | 16.67° C | 71% | 1006.4 hPa | 0.25 mm | 1.79 m/s, 321° | - | - |
| 1778007003 | 16.67° C | 71% | 1006.4 hPa | 0.25 mm | 1.79 m/s, 321° | - | - |
| 1778007003 | 16.67° C | 71% | 1006.4 hPa | 0.25 mm | 1.79 m/s, 321° | - | - |
| 1778006681 | 16.67° C | 69% | 1006.5 hPa | 0 mm | 2.68 m/s, 314° | - | - |
| 1778006681 | 16.67° C | 69% | 1006.5 hPa | 0 mm | 2.68 m/s, 314° | - | - |
| 1778006678 | 16.67° C | 69% | 1006.5 hPa | 0 mm | 2.68 m/s, 314° | - | - |
| 1778006678 | 16.67° C | 69% | 1006.5 hPa | 0 mm | 2.68 m/s, 314° | - | - |
| 1778006678 | 16.67° C | 69% | 1006.5 hPa | 0 mm | 2.68 m/s, 314° | - | - |
| 1778006375 | 17.22° C | 66% | 1006.1 hPa | 0 mm | 3.58 m/s, 305° | - | - |
| 1778006375 | 17.22° C | 66% | 1006.1 hPa | 0 mm | 3.58 m/s, 305° | - | - |
* Rain latest hour (hover to see other rain measurements)
** Current wind speed in m/s (hover to see current wind gust speed)